New Brunswick, NJ

8:42 PM EDT on October 24, 2014 (GMT -0400)
Linden | Change Station
CLOSE
Current Station
Airport
Location: Linden,
Elevation: 23 ft
Nearby Weather Stations

Elev 23 ft 40.62 °N, 74.25 °W | Updated 7 minutes ago

Partly Cloudy
Partly Cloudy
65 °F
Feels Like 65 °F
N
7
Wind Variable Wind from NW

Today
High -- | Low -- °F
--% Chance of Precip.
Yesterday
High -- | Low -- °F
Precip. -- in
7:18 AM 6:04 PM
New Moon, 1% visible
Pressure 29.83 in
Visibility 10.0 miles
Clouds Clear
Dew Point 44 °F
Humidity 47%
Rainfall 0.00 in
Snow Depth Not available.
UV 0 out of 12
Pollen 1.70 out of 12
Air Quality Not available.
Flu Activity Sporadic
METAR KLDJ 250035Z AUTO 32006KT 10SM CLR 18/07 A2983 RMK AO2 T01820067

More Conditions Fewer Conditions

Pressure 29.83 in
Visibility 10.0 miles
Clouds Clear
Dew Point 44 °F
Humidity 47%
Rainfall 0.00 in
Snow Depth Not available.
UV 0 out of 12
Pollen 1.70 out of 12
Air Quality Not available.
Flu Activity Sporadic
METAR KLDJ 250035Z AUTO 32006KT 10SM CLR 18/07 A2983 RMK AO2 T01820067

More Conditions Fewer Conditions

10-Day Weather Forecast

Almanac

Astronomy

Oct. 24, 2014 Rise Set
Actual Time 7:18 AM EDT 6:04 PM EDT
Civil Twilight 6:50 AM EDT 6:32 PM EDT
Nautical Twilight 6:18 AM EDT 7:04 PM EDT
Astronomical Twilight 5:47 AM EDT 7:36 PM EDT
Moon 7:55 AM EDT (10/24) 6:42 PM EDT (10/24)
Length of Visible Light 11h 41m
Length of Day
10h 46m
Tomorrow will be 2m 29s shorter.
New Moon, 1% of the Moon is Illuminated
Today
New Moon
Oct 30
First Quarter
Nov 6
Full
Nov 14
Last Quarter
Nov 22
New

Today's Extremes

State Highs State Lows

Community

WunderPhotos

Upload Photos

1,764,735 photos uploaded!

WunderBlogs® & News

Nearby

Snow Depth

Station Depth Elevation
No new snow has been reported.

Earthquake Activity

City Distance Mag. Time & Date
No recent earthquake activity has been reported nearby.
Minimum magnitude displayed is 2.5.

Coastal Water Temperatures

Place Temperature
Sandy Hook, NJ 59.0 °F
The Battery, NY 62.1 °F
Bergen Point West Reach, NJ 61.0 °F
Kings Point, NY 57.9 °F

Nearby Weather Stations